Skip to content
You are here: Gozo Weather
Gozo Weather Station for the very latest live weather conditions from Gozo and Malta
 
 TIME   TEMPERATURE   WINDSPEED   DIRECTION   HUMIDITY   BAROMETER   RAINFALL 
4:30 14.9°C (58.8°F) 13.0 kmh (8.1 mph) WNW 80% 1014.0hPa (29.94 inHg) 0.0mm (0.00 in.)
3:30 14.8°C (58.6 °F) 24.1 kmh (15.0 mph) WNW 80% 1014.0hPa (29.94 inHg) 0.0mm (0.00 in.)
2:30 15.0°C (59.0 °F) 16.7 kmh (10.4 mph) WNW 79% 1014.0hPa (29.94 inHg) 0.0mm (0.00 in.)
1:30 14.9°C (58.8 °F) 20.4 kmh (12.7 mph) WNW 78% 1014.0hPa (29.94 inHg) 0.0mm (0.00 in.)
12:30 14.9°C (58.8 °F) 16.7 kmh (10.4 mph) NW 77% 1015.0hPa (29.97 inHg) 0.0mm (0.00 in.)
11:30 15.1°C (59.2 °F) 16.7 kmh (10.4 mph) NW 76% 1015.0hPa (29.97 inHg) 0.0mm (0.00 in.)
10:30 15.1°C (59.2 °F) 20.4 kmh (12.7 mph) WNW 76% 1015.0hPa (29.97 inHg) 0.0mm (0.00 in.)
9:30 14.7°C (58.5 °F) 40.7 kmh (25.3 mph) NW 74% 1014.0hPa (29.94 inHg) 0.0mm (0.00 in.)
8:30 15.2°C (59.4 °F) 24.1 kmh (15.0 mph) NNW 73% 1013.0hPa (29.91 inHg) 0.0mm (0.00 in.)
7:30 15.9°C (60.6 °F) 18.5 kmh (11.5 mph) W 72% 1012.0hPa (29.88 inHg) 0.0mm (0.00 in.)
6:30 16.5°C (61.7 °F) 16.7 kmh (10.4 mph) SW 71% 1011.0hPa (29.85 inHg) 0.0mm (0.00 in.)
5:30 17.3°C (63.1 °F) 16.7 kmh (10.4 mph) WNW 69% 1011.0hPa (29.85 inHg) 0.0mm (0.00 in.)
4:30 17.6°C (63.7 °F) 16.7 kmh (10.4 mph) W 68% 1010.0hPa (29.83 inHg) 0.0mm (0.00 in.)
3:30 17.7°C (63.9 °F) 24.1 kmh (15.0 mph) NW 68% 1010.0hPa (29.83 inHg) 0.0mm (0.00 in.)
2:30 17.0°C (62.6 °F) 37.0 kmh (23.0 mph) NNW 70% 1010.0hPa (29.83 inHg) 0.0mm (0.00 in.)
1:30 17.6°C (63.7 °F) 24.1 kmh (15.0 mph) WNW 70% 1010.0hPa (29.83 inHg) 0.0mm (0.00 in.)
12:30 17.4°C (63.3 °F) 24.1 kmh (15.0 mph) NNW 71% 1010.0hPa (29.83 inHg) 0.0mm (0.00 in.)
11:30 17.0°C (62.6 °F) 33.3 kmh (20.7 mph) NNW 71% 1009.0hPa (29.80 inHg) 0.0mm (0.00 in.)
10:30 17.5°C (63.5 °F) 27.8 kmh (17.3 mph) NNW 70% 1009.0hPa (29.80 inHg) 0.0mm (0.00 in.)
9:30 17.5°C (63.5 °F) 35.2 kmh (21.9 mph) N 69% 1008.0hPa (29.77 inHg) 0.0mm (0.00 in.)
8:24 16.8°C (62.2 °F) 29.6 kmh (18.4 mph) NNW 71% 1007.0hPa (29.74 inHg) 0.0mm (0.00 in.)
7:24 15.4°C (59.7 °F) 44.4 kmh (27.6 mph) NW 72% 1007.0hPa (29.74 inHg) 0.0mm (0.00 in.)
6:24 15.6°C (60.1 °F) 31.5 kmh (19.6 mph) NNW 70% 1007.0hPa (29.74 inHg) 0.0mm (0.00 in.)
5:24 16.3°C (61.3 °F) 35.2 kmh (21.9 mph) WNW 67% 1007.0hPa (29.74 inHg) 0.0mm (0.00 in.)

You need the latest version of Flash Player to view some of our content.


Why not download and install the latest version now?
It will only take you a moment and will ensure that you can view all the latest flash designed websites.

Translate this page

Animated Satellite

Click per aprire http://www.gozo.ws/Animation.php
copyright 2014 EUMETSAT

European Lightning Activity


Please click image for full size

Sponsored Links